createdAt,value
2019-05-22T00:01:28.290Z,16.70
2019-05-22T00:04:38.098Z,16.60
2019-05-22T00:07:44.065Z,16.70
2019-05-22T00:10:49.642Z,16.60
2019-05-22T00:13:55.235Z,16.60
2019-05-22T00:17:02.566Z,16.60
2019-05-22T00:20:06.532Z,16.50
2019-05-22T00:23:12.383Z,16.50
2019-05-22T00:26:16.670Z,16.50
2019-05-22T00:29:22.313Z,16.40
2019-05-22T00:32:27.231Z,16.40
2019-05-22T00:35:31.679Z,16.40
2019-05-22T00:38:37.365Z,16.30
2019-05-22T00:41:42.837Z,16.20
2019-05-22T00:44:48.204Z,16.20
2019-05-22T00:47:52.420Z,16.20
2019-05-22T00:51:13.046Z,16.10
2019-05-22T00:54:33.951Z,16.10
2019-05-22T00:57:46.201Z,16.10
2019-05-22T01:00:54.498Z,15.90
2019-05-22T01:04:02.296Z,15.80
2019-05-22T01:07:11.977Z,15.80
2019-05-22T01:10:17.732Z,15.70
2019-05-22T01:13:22.414Z,15.70
2019-05-22T01:16:27.174Z,15.70
2019-05-22T01:19:31.284Z,15.70
2019-05-22T01:22:37.085Z,15.60
2019-05-22T01:25:42.612Z,15.60
2019-05-22T01:28:48.551Z,15.60
2019-05-22T01:31:59.993Z,15.60
2019-05-22T01:35:04.666Z,15.60
2019-05-22T01:38:11.961Z,15.60
2019-05-22T01:41:20.927Z,15.60
2019-05-22T01:44:26.251Z,15.50
2019-05-22T01:47:43.941Z,15.50
2019-05-22T01:50:57.025Z,15.50
2019-05-22T01:54:02.631Z,15.50
2019-05-22T01:57:06.247Z,15.50
2019-05-22T02:00:13.388Z,15.40
2019-05-22T02:03:19.825Z,15.40
2019-05-22T02:06:24.918Z,15.40
2019-05-22T02:09:35.387Z,15.30
2019-05-22T02:12:51.473Z,15.30
2019-05-22T02:15:55.625Z,15.30
2019-05-22T02:19:00.254Z,15.30
2019-05-22T02:22:05.128Z,15.20
2019-05-22T02:25:09.935Z,15.30
2019-05-22T02:28:15.371Z,15.30
2019-05-22T02:31:25.930Z,15.30
2019-05-22T02:34:30.159Z,15.30
2019-05-22T02:37:35.380Z,15.20
2019-05-22T02:40:41.768Z,15.20
2019-05-22T02:43:45.609Z,15.20
2019-05-22T02:46:51.216Z,15.20
2019-05-22T02:49:57.204Z,15.20
2019-05-22T02:53:03.595Z,15.10
2019-05-22T02:56:08.577Z,15.10
2019-05-22T02:59:15.155Z,15.10
2019-05-22T03:02:19.977Z,15.00
2019-05-22T03:05:24.733Z,15.00
2019-05-22T03:08:34.413Z,14.90
2019-05-22T03:11:40.996Z,14.90
2019-05-22T03:14:45.661Z,14.90
2019-05-22T03:17:52.032Z,14.80
2019-05-22T03:20:56.633Z,14.80
2019-05-22T03:24:02.939Z,14.70
2019-05-22T03:27:07.121Z,14.70
2019-05-22T03:30:25.874Z,14.70
2019-05-22T03:33:30.224Z,14.70
2019-05-22T03:36:34.112Z,14.70
2019-05-22T03:39:38.766Z,14.70
2019-05-22T03:42:43.766Z,14.70
2019-05-22T03:45:49.119Z,14.80
2019-05-22T03:48:53.237Z,14.80
2019-05-22T03:51:58.436Z,14.80
2019-05-22T03:55:02.275Z,14.70
2019-05-22T03:58:07.618Z,14.70
2019-05-22T04:01:12.490Z,14.70
2019-05-22T04:04:34.247Z,14.60
2019-05-22T04:07:39.320Z,14.50
2019-05-22T04:11:10.163Z,14.50
2019-05-22T04:14:14.202Z,14.50
2019-05-22T04:17:19.786Z,14.50
2019-05-22T04:20:23.938Z,14.50
2019-05-22T04:23:27.981Z,14.50
2019-05-22T04:26:33.237Z,14.50
2019-05-22T04:29:37.964Z,14.50
2019-05-22T04:32:44.183Z,14.50
2019-05-22T04:35:55.291Z,14.50
2019-05-22T04:38:57.087Z,14.40
2019-05-22T04:42:02.265Z,14.30
2019-05-22T04:45:15.251Z,14.30
2019-05-22T04:48:19.558Z,14.20
2019-05-22T04:51:29.865Z,14.20
2019-05-22T04:54:34.881Z,14.10
2019-05-22T04:57:39.382Z,14.10
2019-05-22T05:00:43.365Z,14.10
2019-05-22T05:03:48.642Z,14.10
2019-05-22T05:06:53.723Z,14.10
2019-05-22T05:10:00.893Z,14.10
2019-05-22T05:13:05.019Z,14.10
2019-05-22T05:16:09.299Z,14.10
2019-05-22T05:19:13.230Z,14.00
2019-05-22T05:22:24.926Z,14.00
2019-05-22T05:25:29.786Z,14.00
2019-05-22T05:28:34.038Z,13.90
2019-05-22T05:31:38.455Z,14.00
2019-05-22T05:35:08.291Z,14.00
2019-05-22T05:38:12.509Z,14.00
2019-05-22T05:41:16.522Z,13.80
2019-05-22T05:44:20.478Z,13.80
2019-05-22T05:47:25.270Z,13.70
2019-05-22T05:50:39.453Z,13.80
2019-05-22T05:53:44.161Z,13.80
2019-05-22T05:56:49.761Z,13.80
2019-05-22T05:59:54.480Z,13.70
2019-05-22T06:03:03.737Z,13.70
2019-05-22T06:07:00.467Z,13.70
2019-05-22T06:10:30.221Z,13.70
2019-05-22T06:13:34.547Z,13.60
2019-05-22T06:17:38.368Z,13.60
2019-05-22T06:20:42.102Z,13.50
2019-05-22T06:24:18.217Z,13.50
2019-05-22T06:27:30.297Z,13.50
2019-05-22T06:30:44.660Z,13.50
2019-05-22T06:33:48.407Z,13.50
2019-05-22T06:36:52.927Z,13.50
2019-05-22T06:39:57.556Z,13.50
2019-05-22T06:43:37.558Z,13.50
2019-05-22T06:46:45.706Z,13.50
2019-05-22T06:49:52.788Z,13.50
2019-05-22T06:53:09.329Z,13.40
2019-05-22T06:56:02.490Z,13.50
2019-05-22T06:59:07.385Z,13.50
2019-05-22T07:02:14.396Z,13.50
2019-05-22T07:05:18.276Z,13.50
2019-05-22T07:08:22.627Z,13.50
2019-05-22T07:11:27.472Z,13.40
2019-05-22T07:14:31.536Z,13.50
2019-05-22T07:17:36.181Z,13.50
2019-05-22T07:20:41.860Z,13.60
2019-05-22T07:23:47.657Z,13.50
2019-05-22T07:26:52.350Z,13.60
2019-05-22T07:29:57.023Z,13.50
2019-05-22T07:33:00.868Z,13.50
2019-05-22T07:36:10.138Z,13.60
2019-05-22T07:39:10.707Z,13.60
2019-05-22T07:42:14.819Z,13.50
2019-05-22T07:45:19.226Z,13.60
2019-05-22T07:48:25.358Z,13.60
2019-05-22T07:51:29.429Z,13.60
2019-05-22T07:54:34.206Z,13.50
2019-05-22T07:57:40.598Z,13.50
2019-05-22T08:00:53.889Z,13.60
2019-05-22T08:03:58.274Z,13.60
2019-05-22T08:07:02.258Z,13.60
2019-05-22T08:10:07.775Z,13.60
2019-05-22T08:13:12.361Z,13.60
2019-05-22T08:16:16.758Z,13.60
2019-05-22T08:19:21.178Z,13.50
2019-05-22T08:22:25.885Z,13.60
2019-05-22T08:25:31.629Z,13.60
2019-05-22T08:28:36.077Z,13.70
2019-05-22T08:31:41.555Z,13.70
2019-05-22T08:34:46.930Z,13.70
2019-05-22T08:37:51.485Z,13.80
2019-05-22T08:40:55.569Z,13.80
2019-05-22T08:44:15.416Z,13.80
2019-05-22T08:47:07.170Z,13.70
2019-05-22T08:50:12.288Z,13.70
2019-05-22T08:53:16.558Z,13.70
2019-05-22T08:56:20.505Z,13.80
2019-05-22T08:59:24.440Z,13.80
2019-05-22T09:02:28.908Z,13.80
2019-05-22T09:05:33.191Z,13.80
2019-05-22T09:08:37.373Z,13.90
2019-05-22T09:11:41.132Z,13.80
2019-05-22T09:14:45.383Z,13.80
2019-05-22T09:17:49.294Z,13.90
2019-05-22T09:20:53.541Z,13.90
2019-05-22T09:23:58.859Z,13.90
2019-05-22T09:27:03.336Z,13.90
2019-05-22T09:30:08.376Z,14.00
2019-05-22T09:33:12.406Z,14.00
2019-05-22T09:36:16.327Z,14.00
2019-05-22T09:39:20.599Z,14.00
2019-05-22T09:42:24.765Z,14.00
2019-05-22T09:45:28.590Z,14.10
2019-05-22T09:48:34.279Z,14.10
2019-05-22T09:51:38.014Z,14.10
2019-05-22T09:54:42.666Z,14.10
2019-05-22T09:57:47.035Z,14.20
2019-05-22T10:00:51.163Z,14.20
2019-05-22T10:03:55.286Z,14.20
2019-05-22T10:06:59.085Z,14.40
2019-05-22T10:10:03.289Z,14.40
2019-05-22T10:13:07.282Z,14.30
2019-05-22T10:16:11.369Z,14.30
2019-05-22T10:19:15.289Z,14.30
2019-05-22T10:22:19.766Z,14.30
2019-05-22T10:25:23.922Z,14.30
2019-05-22T10:28:27.995Z,14.30
2019-05-22T10:31:32.476Z,14.20
2019-05-22T10:34:36.344Z,14.20
2019-05-22T10:37:40.901Z,14.10
2019-05-22T10:40:44.757Z,14.10
2019-05-22T10:43:48.787Z,14.10
2019-05-22T10:46:52.831Z,14.10
2019-05-22T10:49:57.734Z,14.00
2019-05-22T10:53:01.636Z,14.10
2019-05-22T10:56:05.882Z,14.00
2019-05-22T10:59:09.682Z,14.10
2019-05-22T11:02:14.079Z,14.30
2019-05-22T11:05:20.074Z,14.40
2019-05-22T11:08:23.853Z,14.40
2019-05-22T11:11:27.516Z,14.30
2019-05-22T11:14:33.412Z,14.30
2019-05-22T11:17:37.890Z,14.30
2019-05-22T11:20:42.721Z,14.30
2019-05-22T11:23:52.262Z,14.30
2019-05-22T11:26:52.294Z,14.30
2019-05-22T11:29:56.989Z,14.20
2019-05-22T11:33:01.431Z,14.30
2019-05-22T11:36:05.444Z,14.30
2019-05-22T11:39:13.571Z,14.30
2019-05-22T11:42:17.436Z,14.30
2019-05-22T11:45:21.547Z,14.30
2019-05-22T11:48:25.533Z,14.20
2019-05-22T11:51:29.346Z,14.20
2019-05-22T11:54:33.280Z,14.10
2019-05-22T11:57:38.995Z,14.10
2019-05-22T12:00:43.008Z,14.10
2019-05-22T12:03:47.635Z,14.10
2019-05-22T12:06:53.746Z,14.00
2019-05-22T12:09:57.747Z,14.00
2019-05-22T12:13:02.703Z,14.00
2019-05-22T12:16:07.161Z,14.00
2019-05-22T12:19:11.212Z,14.00
2019-05-22T12:22:17.508Z,14.00
2019-05-22T12:25:21.046Z,14.00
2019-05-22T12:28:25.329Z,14.00
2019-05-22T12:31:29.806Z,14.00
2019-05-22T12:34:33.889Z,14.00
2019-05-22T12:37:37.927Z,14.00
2019-05-22T12:40:42.343Z,14.00
2019-05-22T12:43:47.421Z,14.00
2019-05-22T12:46:51.415Z,13.90
2019-05-22T12:49:55.709Z,13.90
2019-05-22T12:53:02.757Z,13.80
2019-05-22T12:56:06.847Z,13.90
2019-05-22T12:59:11.290Z,13.90
2019-05-22T13:02:15.923Z,13.90
2019-05-22T13:05:19.932Z,13.90
2019-05-22T13:08:23.853Z,14.00
2019-05-22T13:11:27.895Z,13.90
2019-05-22T13:14:32.004Z,13.90
2019-05-22T13:17:36.770Z,13.80
2019-05-22T13:20:44.918Z,13.80
2019-05-22T13:23:51.058Z,13.70
2019-05-22T13:26:56.440Z,13.80
2019-05-22T13:30:02.260Z,13.70
2019-05-22T13:33:08.996Z,13.70
2019-05-22T13:36:14.293Z,13.60
2019-05-22T13:39:19.412Z,13.60
2019-05-22T13:42:23.674Z,13.60
2019-05-22T13:45:30.151Z,13.60
2019-05-22T13:48:35.191Z,13.60
2019-05-22T13:51:40.569Z,13.60
2019-05-22T13:54:45.139Z,13.60
2019-05-22T13:57:49.498Z,13.60
2019-05-22T14:00:53.534Z,13.60
2019-05-22T14:03:57.373Z,13.70
2019-05-22T14:07:01.279Z,13.70
2019-05-22T14:10:06.732Z,13.60
2019-05-22T14:13:10.577Z,13.60
2019-05-22T14:16:14.845Z,13.70
2019-05-22T14:19:18.706Z,13.60
2019-05-22T14:22:22.625Z,13.60
2019-05-22T14:25:27.988Z,13.60
2019-05-22T14:28:34.202Z,13.60
2019-05-22T14:31:38.344Z,13.60
2019-05-22T14:34:42.328Z,13.50
2019-05-22T14:37:46.325Z,13.40
2019-05-22T14:40:50.370Z,13.40
2019-05-22T14:43:54.341Z,13.50
2019-05-22T14:47:12.229Z,13.40
2019-05-22T14:50:03.933Z,13.40
2019-05-22T14:53:08.245Z,13.50
2019-05-22T14:56:12.193Z,13.40
2019-05-22T14:59:17.232Z,13.40
2019-05-22T15:02:21.815Z,13.40
2019-05-22T15:05:25.942Z,13.50
2019-05-22T15:08:29.722Z,13.40
2019-05-22T15:11:33.781Z,13.40
2019-05-22T15:14:37.716Z,13.40
2019-05-22T15:17:41.590Z,13.40
2019-05-22T15:20:58.909Z,13.40
2019-05-22T15:24:03.530Z,13.50
2019-05-22T15:27:08.165Z,13.50
2019-05-22T15:30:12.481Z,13.40
2019-05-22T15:33:16.789Z,13.50
2019-05-22T15:36:24.003Z,13.50
2019-05-22T15:39:28.598Z,13.50
2019-05-22T15:42:38.744Z,13.60
2019-05-22T15:45:42.972Z,13.60
2019-05-22T15:48:48.830Z,13.60
2019-05-22T15:51:53.051Z,13.60
2019-05-22T15:54:57.818Z,13.60
2019-05-22T15:58:02.795Z,13.50
2019-05-22T16:01:10.005Z,13.50
2019-05-22T16:04:16.589Z,13.60
2019-05-22T16:07:21.323Z,13.60
2019-05-22T16:10:26.046Z,13.60
2019-05-22T16:13:32.602Z,13.70
2019-05-22T16:16:37.361Z,13.60
2019-05-22T16:19:42.091Z,13.60
2019-05-22T16:22:46.610Z,13.60
2019-05-22T16:25:52.029Z,13.60
2019-05-22T16:28:56.408Z,13.60
2019-05-22T16:32:04.206Z,13.60
2019-05-22T16:35:09.554Z,13.60
2019-05-22T16:38:14.136Z,13.60
2019-05-22T16:41:18.789Z,13.50
2019-05-22T16:44:23.572Z,13.60
2019-05-22T16:47:27.413Z,13.60
2019-05-22T16:50:32.262Z,13.60
2019-05-22T16:53:37.849Z,13.60
2019-05-22T16:56:41.937Z,13.50
2019-05-22T16:59:45.863Z,13.50
2019-05-22T17:02:50.111Z,13.50
2019-05-22T17:05:54.506Z,13.50
2019-05-22T17:09:00.415Z,13.50
2019-05-22T17:12:06.526Z,13.60
2019-05-22T17:15:15.705Z,13.60
2019-05-22T17:18:20.049Z,13.70
2019-05-22T17:21:24.301Z,13.70
2019-05-22T17:24:28.614Z,13.70
2019-05-22T17:27:32.687Z,13.70
2019-05-22T17:30:37.170Z,13.70
2019-05-22T17:33:42.275Z,13.70
2019-05-22T17:36:46.191Z,13.80
2019-05-22T17:39:51.818Z,13.80
2019-05-22T17:42:58.994Z,13.70
2019-05-22T17:46:04.777Z,13.70
2019-05-22T17:49:08.738Z,13.70
2019-05-22T17:52:14.468Z,13.70
2019-05-22T17:55:19.893Z,13.80
2019-05-22T17:58:29.029Z,13.80
2019-05-22T18:01:29.986Z,13.80
2019-05-22T18:04:34.191Z,13.70
2019-05-22T18:07:38.703Z,13.70
2019-05-22T18:10:45.707Z,13.70
2019-05-22T18:13:59.941Z,13.70
2019-05-22T18:17:04.181Z,13.70
2019-05-22T18:20:11.813Z,13.70
2019-05-22T18:23:15.682Z,13.70
2019-05-22T18:26:19.763Z,13.70
2019-05-22T18:29:23.712Z,13.70
2019-05-22T18:32:30.985Z,13.70
2019-05-22T18:35:33.266Z,13.70
2019-05-22T18:38:36.982Z,13.70
2019-05-22T18:44:50.998Z,13.70
2019-05-22T18:47:55.136Z,13.70
2019-05-22T18:50:59.600Z,13.70
2019-05-22T18:54:03.768Z,13.70
2019-05-22T18:57:07.809Z,13.70
2019-05-22T19:00:12.139Z,13.60
2019-05-22T19:03:16.539Z,13.60
2019-05-22T19:06:30.240Z,13.70
2019-05-22T19:09:26.618Z,13.70
2019-05-22T19:12:30.990Z,13.60
2019-05-22T19:15:35.383Z,13.70
2019-05-22T19:18:39.106Z,13.60
2019-05-22T19:21:43.527Z,13.60
2019-05-22T19:24:47.833Z,13.50
2019-05-22T19:27:51.646Z,13.60
2019-05-22T19:30:55.832Z,13.60
2019-05-22T19:34:01.563Z,13.60
2019-05-22T19:37:05.603Z,13.60
2019-05-22T19:40:13.531Z,13.60
2019-05-22T19:43:17.338Z,13.50
2019-05-22T19:46:21.201Z,13.60
2019-05-22T19:49:25.418Z,13.60
2019-05-22T19:52:41.142Z,13.60
2019-05-22T19:55:37.018Z,13.50
2019-05-22T19:58:41.723Z,13.60
2019-05-22T20:01:45.474Z,13.60
2019-05-22T20:04:49.522Z,13.60
2019-05-22T20:07:54.062Z,13.60
2019-05-22T20:10:58.805Z,13.60
2019-05-22T20:14:03.764Z,13.50
2019-05-22T20:17:07.817Z,13.50
2019-05-22T20:20:14.699Z,13.50
2019-05-22T20:23:34.271Z,13.50
2019-05-22T20:26:24.757Z,13.50
2019-05-22T20:29:29.230Z,13.50
2019-05-22T20:32:33.361Z,13.50
2019-05-22T20:35:37.508Z,13.50
2019-05-22T20:38:41.377Z,13.40
2019-05-22T20:41:45.178Z,13.40
2019-05-22T20:44:49.386Z,13.40
2019-05-22T20:48:17.325Z,13.40
2019-05-22T20:51:23.965Z,13.40
2019-05-22T20:54:28.378Z,13.40
2019-05-22T20:57:33.457Z,13.40
2019-05-22T21:00:38.944Z,13.30
2019-05-22T21:03:43.811Z,13.30
2019-05-22T21:06:59.605Z,13.30
2019-05-22T21:10:01.826Z,13.40
2019-05-22T21:13:08.327Z,13.30
2019-05-22T21:16:12.412Z,13.30
2019-05-22T21:19:17.978Z,13.30
2019-05-22T21:22:23.406Z,13.30
2019-05-22T21:25:27.575Z,13.30
2019-05-22T21:28:31.406Z,13.20
2019-05-22T21:31:35.800Z,13.20
2019-05-22T21:34:40.176Z,13.20
2019-05-22T21:37:44.202Z,13.20
2019-05-22T21:40:48.581Z,13.20
2019-05-22T21:43:53.841Z,13.20
2019-05-22T21:46:57.799Z,13.10
2019-05-22T21:50:01.630Z,13.10
2019-05-22T21:53:10.485Z,13.10
2019-05-22T21:56:14.710Z,13.00
2019-05-22T21:59:18.508Z,13.00
2019-05-22T22:02:30.478Z,13.10
2019-05-22T22:05:34.291Z,13.10
2019-05-22T22:08:38.074Z,13.00
2019-05-22T22:11:43.726Z,13.10
2019-05-22T22:14:48.497Z,13.10
2019-05-22T22:17:53.034Z,13.10
2019-05-22T22:20:57.515Z,13.00
2019-05-22T22:24:02.089Z,13.00
2019-05-22T22:27:06.538Z,13.00
2019-05-22T22:30:23.428Z,13.00
2019-05-22T22:33:30.945Z,13.00
2019-05-22T22:36:35.321Z,13.00
2019-05-22T22:42:52.518Z,13.00
2019-05-22T22:46:06.503Z,13.00
2019-05-22T22:49:15.174Z,13.00
2019-05-22T22:52:19.354Z,12.90
2019-05-22T22:55:24.749Z,12.90
2019-05-22T22:58:29.638Z,12.90
2019-05-22T23:01:35.581Z,12.90
2019-05-22T23:04:40.660Z,12.90
2019-05-22T23:07:44.530Z,12.80
2019-05-22T23:10:48.947Z,12.80
2019-05-22T23:13:52.788Z,12.80
2019-05-22T23:16:57.169Z,12.80
2019-05-22T23:19:59.891Z,12.80
2019-05-22T23:23:02.365Z,12.70
2019-05-22T23:26:08.811Z,12.80
2019-05-22T23:29:14.252Z,12.70
2019-05-22T23:32:19.074Z,12.80
2019-05-22T23:35:24.652Z,12.80
2019-05-22T23:38:29.629Z,12.70
2019-05-22T23:41:34.484Z,12.70
2019-05-22T23:44:39.641Z,12.60
2019-05-22T23:48:03.296Z,12.60
2019-05-22T23:51:07.258Z,12.60
2019-05-22T23:54:12.627Z,12.60
2019-05-22T23:57:16.603Z,12.50
